Time;durP1;ratioP1;P1;durP2;ratioP2;P2;SDS_P1;SDS_P2;PMS_P1;PMS_P2;Temp;Humidity;BMP_temperature;BMP_pressure;BME280_temperature;BME280_humidity;BME280_pressure;Samples;Min_cycle;Max_cycle;Signal;HPM_P1;HPM_P2
2021/10/19 00:01:17;;;;;;;;;24.75;21.50;;;;;17.81;76.78;101718.44;4948071;28;45584;-67
2021/10/19 00:03:43;;;;;;;;;20.00;17.75;;;;;17.81;76.81;101713.09;4950472;28;45489;-68
2021/10/19 00:06:09;;;;;;;;;23.00;21.00;;;;;17.83;76.92;101719.16;4950232;28;45456;-67
2021/10/19 00:08:35;;;;;;;;;21.00;19.25;;;;;17.84;76.84;101720.84;4948914;28;45539;-70
2021/10/19 00:11:00;;;;;;;;;22.75;18.75;;;;;17.87;76.63;101717.13;4951490;28;46099;-68
2021/10/19 00:13:26;;;;;;;;;22.00;18.00;;;;;17.85;77.14;101717.22;4948925;28;45479;-69
2021/10/19 00:15:52;;;;;;;;;20.75;18.00;;;;;17.87;77.17;101712.66;4948379;28;45422;-68
2021/10/19 00:18:17;;;;;;;;;21.25;20.00;;;;;17.86;76.88;101713.63;4941060;28;45896;-66
2021/10/19 00:20:43;;;;;;;;;20.50;19.75;;;;;17.84;77.03;101710.19;4949610;28;46267;-67
2021/10/19 00:23:09;;;;;;;;;18.50;18.50;;;;;17.85;77.20;101712.78;4950102;28;45663;-67
2021/10/19 00:25:34;;;;;;;;;20.75;19.50;;;;;17.88;76.76;101713.50;4948960;28;45394;-67
2021/10/19 00:28:00;;;;;;;;;19.75;18.75;;;;;17.87;77.00;101704.66;4947080;28;45407;-67
2021/10/19 00:30:26;;;;;;;;;20.00;17.25;;;;;17.89;77.29;101713.38;4946951;28;45473;-67
2021/10/19 00:32:51;;;;;;;;;17.25;16.25;;;;;17.88;77.19;101703.69;4941480;28;45339;-67
2021/10/19 00:35:17;;;;;;;;;17.00;14.75;;;;;17.89;76.48;101693.88;4942447;28;46612;-67
2021/10/19 00:37:43;;;;;;;;;14.50;13.00;;;;;17.92;76.61;101690.97;4942368;28;45517;-67
2021/10/19 00:40:09;;;;;;;;;21.00;18.00;;;;;17.91;76.53;101695.44;4941899;28;46046;-67
2021/10/19 00:42:36;;;;;;;;;19.50;16.25;;;;;17.93;76.63;101698.00;4941872;28;45281;-66
2021/10/19 00:45:06;;;;;;;;;16.00;14.00;;;;;17.93;76.81;101693.53;4945296;28;45290;-67
2021/10/19 00:47:32;;;;;;;;;18.25;15.25;;;;;17.93;76.62;101698.88;4943872;28;45325;-66
2021/10/19 00:49:57;;;;;;;;;17.25;16.50;;;;;17.93;76.52;101698.88;4937045;28;45562;-66
2021/10/19 00:52:23;;;;;;;;;18.75;16.25;;;;;17.94;76.56;101702.38;4945386;28;45382;-66
2021/10/19 00:54:49;;;;;;;;;16.75;16.75;;;;;17.94;76.65;101702.38;4945500;28;45273;-66
2021/10/19 00:57:15;;;;;;;;;12.75;12.00;;;;;17.94;76.37;101713.91;4945499;28;45452;-66
2021/10/19 00:59:43;;;;;;;;;19.25;15.50;;;;;17.96;76.21;101711.97;4945310;28;45453;-66
2021/10/19 01:02:09;;;;;;;;;13.50;13.25;;;;;17.98;75.91;101723.34;4945088;28;45461;-66
2021/10/19 01:04:34;;;;;;;;;18.25;16.00;;;;;17.99;75.98;101722.38;4945336;28;45164;-66
2021/10/19 01:07:01;;;;;;;;;16.75;15.25;;;;;18.00;75.92;101725.88;4945237;28;45280;-66
2021/10/19 01:09:26;;;;;;;;;15.50;13.25;;;;;18.02;75.92;101726.66;4944879;28;45410;-66
2021/10/19 01:11:53;;;;;;;;;19.75;16.75;;;;;18.03;76.13;101718.53;4944864;28;45342;-66
2021/10/19 01:14:18;;;;;;;;;18.25;14.00;;;;;18.04;76.52;101728.22;4945237;28;45536;-66
2021/10/19 01:16:44;;;;;;;;;14.25;13.50;;;;;18.04;76.20;101730.03;4949000;28;45296;-66
2021/10/19 01:19:09;;;;;;;;;16.25;13.75;;;;;18.05;76.05;101731.75;4953434;28;45775;-67
2021/10/19 01:21:35;;;;;;;;;11.50;11.50;;;;;18.05;76.08;101719.25;4945032;28;45393;-67
2021/10/19 01:24:00;;;;;;;;;14.00;13.75;;;;;18.07;75.81;101721.81;4945022;28;45390;-66
2021/10/19 01:26:26;;;;;;;;;13.00;12.50;;;;;18.08;76.04;101716.34;4945080;28;45315;-66
2021/10/19 01:28:51;;;;;;;;;14.25;13.00;;;;;18.09;75.54;101709.22;4944996;28;45500;-66
2021/10/19 01:31:17;;;;;;;;;13.00;11.50;;;;;18.08;75.63;101708.34;4944807;28;45368;-66
2021/10/19 01:33:42;;;;;;;;;15.50;14.00;;;;;18.09;75.55;101710.06;4944792;28;45342;-66
2021/10/19 01:36:12;;;;;;;;;13.00;12.00;;;;;18.11;75.37;101709.97;4944734;28;45389;-66
2021/10/19 01:38:38;;;;;;;;;16.00;12.25;;;;;18.12;75.29;101704.50;4944630;28;45454;-66
2021/10/19 01:41:04;;;;;;;;;11.00;11.00;;;;;18.15;75.01;101703.41;4944596;28;45330;-66
2021/10/19 01:43:30;;;;;;;;;11.50;11.50;;;;;18.17;74.86;101704.16;4944930;28;45427;-66
2021/10/19 01:45:58;;;;;;;;;15.25;11.75;;;;;18.18;75.08;101705.88;4944607;28;45323;-66
2021/10/19 01:48:25;;;;;;;;;13.00;9.75;;;;;18.18;75.07;101692.53;4944371;28;46292;-67
2021/10/19 01:50:51;;;;;;;;;12.75;11.25;;;;;18.21;74.61;101699.44;4944387;28;45576;-66
2021/10/19 01:53:17;;;;;;;;;14.75;11.50;;;;;18.21;74.71;101705.63;4944568;28;45327;-66
2021/10/19 01:55:43;;;;;;;;;12.25;11.25;;;;;18.23;74.95;101709.00;4944204;28;45335;-66
2021/10/19 01:58:10;;;;;;;;;15.75;13.50;;;;;18.25;75.12;101712.44;4944518;28;46072;-67
2021/10/19 02:00:37;;;;;;;;;13.00;9.50;;;;;18.26;74.94;101715.94;4944290;28;45321;-66
2021/10/19 02:03:04;;;;;;;;;12.00;11.25;;;;;18.27;74.70;101709.66;4944317;28;45316;-66
2021/10/19 02:05:29;;;;;;;;;12.50;12.50;;;;;18.28;74.83;101714.00;4944190;28;45620;-67
2021/10/19 02:07:55;;;;;;;;;13.25;11.75;;;;;18.30;74.33;101706.72;4944298;28;45436;-66
2021/10/19 02:10:21;;;;;;;;;13.25;12.75;;;;;18.31;75.02;101701.28;4944093;28;45346;-66
2021/10/19 02:12:47;;;;;;;;;13.00;12.00;;;;;18.31;75.09;101698.59;4944176;28;45429;-66
2021/10/19 02:15:12;;;;;;;;;13.75;10.50;;;;;18.31;75.11;101695.94;4944118;28;45405;-66
2021/10/19 02:17:38;;;;;;;;;12.75;10.75;;;;;18.31;74.95;101703.09;4944017;28;45608;-66
2021/10/19 02:20:05;;;;;;;;;12.75;12.25;;;;;18.31;74.34;101703.94;4944129;28;45456;-66
2021/10/19 02:22:31;;;;;;;;;14.00;14.00;;;;;18.32;74.77;101696.78;4943014;28;45274;-66
2021/10/19 02:24:58;;;;;;;;;11.50;10.25;;;;;18.32;74.63;101700.31;4943985;28;45413;-66
2021/10/19 02:27:24;;;;;;;;;13.25;10.25;;;;;18.32;74.32;101694.97;4943696;28;46302;-66
2021/10/19 02:29:50;;;;;;;;;14.00;13.00;;;;;18.33;74.89;101695.84;4943784;28;45300;-66
2021/10/19 02:32:15;;;;;;;;;12.75;12.00;;;;;18.33;75.16;101694.03;4943981;28;45284;-67
2021/10/19 02:34:41;;;;;;;;;18.50;12.50;;;;;18.34;75.12;101686.88;4944050;28;45354;-66
2021/10/19 02:37:07;;;;;;;;;14.75;12.00;;;;;18.35;74.57;101691.25;4943827;28;46024;-67
2021/10/19 02:39:32;;;;;;;;;16.00;12.00;;;;;18.34;74.53;101686.88;4943392;28;45382;-66
2021/10/19 02:41:58;;;;;;;;;13.50;13.50;;;;;18.34;74.90;101698.41;4944115;28;45326;-66
2021/10/19 02:44:23;;;;;;;;;15.50;14.75;;;;;18.34;74.45;101695.72;4944053;28;45323;-66
2021/10/19 02:46:49;;;;;;;;;12.00;11.00;;;;;18.35;74.31;101692.09;4943391;28;46107;-67
2021/10/19 02:49:15;;;;;;;;;12.00;11.50;;;;;18.35;74.68;101685.91;4943580;28;45359;-66
2021/10/19 02:51:40;;;;;;;;;13.75;12.25;;;;;18.35;74.30;101686.75;4943971;28;45215;-66
2021/10/19 02:54:06;;;;;;;;;14.50;14.25;;;;;18.33;74.50;101686.03;4943633;28;45265;-66
2021/10/19 02:56:32;;;;;;;;;13.75;12.00;;;;;18.33;74.32;101686.03;4943592;28;46199;-66
2021/10/19 02:58:57;;;;;;;;;12.50;11.75;;;;;18.33;74.80;101679.84;4943591;28;45330;-66
2021/10/19 03:01:23;;;;;;;;;13.75;12.00;;;;;18.34;74.60;101685.06;4943769;28;45222;-67
2021/10/19 03:03:48;;;;;;;;;13.00;11.00;;;;;18.34;74.70;101682.38;4943577;28;45228;-66
2021/10/19 03:06:14;;;;;;;;;12.50;12.00;;;;;18.33;74.78;101688.69;4942583;28;45760;-66
2021/10/19 03:08:39;;;;;;;;;14.50;13.50;;;;;18.34;74.38;101686.88;4943313;28;45314;-67
2021/10/19 03:11:05;;;;;;;;;12.00;10.75;;;;;18.34;74.62;101681.53;4943694;28;45295;-66
2021/10/19 03:13:30;;;;;;;;;10.75;10.75;;;;;18.35;74.97;101688.56;4943160;28;45223;-66
2021/10/19 03:15:56;;;;;;;;;12.75;12.25;;;;;18.35;74.70;101691.25;4943414;28;45271;-66
2021/10/19 03:18:22;;;;;;;;;11.00;10.75;;;;;18.36;74.95;101692.94;4942980;28;45547;-66
2021/10/19 03:20:48;;;;;;;;;17.00;13.00;;;;;18.36;74.65;101695.59;4943273;28;45354;-66
2021/10/19 03:23:14;;;;;;;;;13.75;12.75;;;;;18.37;74.61;101694.63;4942951;28;45623;-66
2021/10/19 03:25:39;;;;;;;;;13.50;10.25;;;;;18.39;74.72;101692.69;4943271;28;45254;-66
2021/10/19 03:28:05;;;;;;;;;12.75;11.00;;;;;18.39;74.94;101698.88;4943062;28;45429;-66
2021/10/19 03:30:30;;;;;;;;;9.75;9.75;;;;;18.41;74.60;101702.28;4943592;28;45326;-66
2021/10/19 03:32:56;;;;;;;;;12.25;12.25;;;;;18.41;74.88;101699.63;4942957;28;45503;-66
2021/10/19 03:35:22;;;;;;;;;17.25;12.00;;;;;18.42;74.80;101701.31;4943186;28;45626;-66
2021/10/19 03:37:47;;;;;;;;;9.50;9.50;;;;;18.44;75.14;101703.00;4942910;28;45270;-66
2021/10/19 03:40:13;;;;;;;;;12.25;12.00;;;;;18.42;75.22;101701.31;4943005;28;45396;-66
2021/10/19 03:42:41;;;;;;;;;10.00;9.00;;;;;18.44;75.03;101703.00;4943095;28;45334;-66
2021/10/19 03:45:10;;;;;;;;;10.00;10.00;;;;;18.46;75.18;101706.41;4942917;28;45360;-66
2021/10/19 03:47:35;;;;;;;;;14.50;10.75;;;;;18.47;74.87;101711.63;4942593;28;45315;-66
2021/10/19 03:50:01;;;;;;;;;13.25;12.25;;;;;18.47;74.84;101708.94;4943011;28;45209;-66
2021/10/19 03:52:26;;;;;;;;;12.25;11.00;;;;;18.49;75.18;101709.69;4942974;28;45437;-66
2021/10/19 03:54:52;;;;;;;;;11.75;9.75;;;;;18.51;75.09;101712.25;4942708;28;45631;-67
2021/10/19 03:57:17;;;;;;;;;14.25;10.00;;;;;18.49;75.05;101707.03;4942802;28;45390;-66
2021/10/19 03:59:43;;;;;;;;;11.50;11.00;;;;;18.48;74.91;101702.63;4942966;28;45481;-66
2021/10/19 04:02:08;;;;;;;;;17.00;13.00;;;;;18.50;75.01;101706.06;4942629;28;45272;-66
2021/10/19 04:04:36;;;;;;;;;10.75;9.00;;;;;18.50;75.27;101708.72;4942606;28;45201;-66
2021/10/19 04:07:01;;;;;;;;;8.50;8.25;;;;;18.50;75.01;101706.06;4942315;28;45444;-66
2021/10/19 04:09:27;;;;;;;;;9.25;8.75;;;;;18.50;74.96;101711.41;4942372;28;45490;-66
2021/10/19 04:11:52;;;;;;;;;13.00;11.75;;;;;18.50;75.28;101715.88;4942456;28;45503;-66
2021/10/19 04:14:18;;;;;;;;;7.75;7.00;;;;;18.52;75.23;101724.63;4942579;28;46130;-66
2021/10/19 04:16:43;;;;;;;;;13.25;11.75;;;;;18.52;75.24;101722.78;4942078;28;45410;-66
2021/10/19 04:19:09;;;;;;;;;9.00;9.00;;;;;18.52;75.40;101724.63;4942512;28;45461;-66
2021/10/19 04:21:34;;;;;;;;;12.25;11.00;;;;;18.52;75.48;101727.28;4942523;28;45394;-66
2021/10/19 04:24:00;;;;;;;;;10.00;9.00;;;;;18.51;75.18;101725.59;4942217;28;45591;-67
2021/10/19 04:26:25;;;;;;;;;9.75;8.75;;;;;18.50;75.23;101723.91;4942200;28;45423;-67
2021/10/19 04:28:51;;;;;;;;;12.25;10.50;;;;;18.48;75.32;101721.31;4942568;28;45334;-67
2021/10/19 04:31:16;;;;;;;;;10.75;9.50;;;;;18.46;75.27;101720.59;4942631;28;45235;-66
2021/10/19 04:33:42;;;;;;;;;14.50;12.00;;;;;18.46;75.02;101723.25;4941945;28;45553;-66
2021/10/19 04:36:07;;;;;;;;;13.50;9.75;;;;;18.46;74.95;101728.59;4942000;28;45260;-66
2021/10/19 04:38:35;;;;;;;;;13.50;12.25;;;;;18.47;74.84;101726.78;4942278;28;46458;-66
2021/10/19 04:41:01;;;;;;;;;14.25;11.25;;;;;18.46;75.26;101717.06;4942055;28;45559;-66
2021/10/19 04:43:26;;;;;;;;;13.00;11.50;;;;;18.46;75.00;101717.06;4942249;28;45374;-66
2021/10/19 04:45:53;;;;;;;;;13.25;11.25;;;;;18.45;75.12;101713.56;4941810;28;45398;-66
2021/10/19 04:48:20;;;;;;;;;10.50;9.00;;;;;18.45;75.20;101718.91;4941968;28;45334;-66
2021/10/19 04:50:45;;;;;;;;;12.75;10.75;;;;;18.45;75.12;101713.56;4942106;28;45275;-66
2021/10/19 04:53:11;;;;;;;;;10.75;10.00;;;;;18.45;74.97;101718.91;4941991;28;45326;-66
2021/10/19 04:55:36;;;;;;;;;13.50;9.75;;;;;18.46;75.31;101714.41;4942049;28;45242;-66
2021/10/19 04:58:02;;;;;;;;;11.25;10.00;;;;;18.47;75.27;101716.09;4942099;28;45418;-65
2021/10/19 05:00:27;;;;;;;;;10.00;9.00;;;;;18.47;75.21;101726.78;4941896;28;45555;-66
2021/10/19 05:02:53;;;;;;;;;12.50;10.75;;;;;18.48;74.92;101728.47;4941870;28;45224;-66
2021/10/19 05:05:19;;;;;;;;;12.50;11.25;;;;;18.48;74.71;101736.47;4941704;28;45212;-66
2021/10/19 05:07:45;;;;;;;;;11.25;8.50;;;;;18.48;74.86;101729.31;4940800;28;45319;-65
2021/10/19 05:10:10;;;;;;;;;10.25;9.00;;;;;18.50;75.26;101723.91;4941683;28;45604;-66
2021/10/19 05:12:36;;;;;;;;;14.00;12.00;;;;;18.47;75.15;101724.97;4941906;28;46193;-66
2021/10/19 05:15:02;;;;;;;;;13.50;8.25;;;;;18.51;75.34;101722.91;4941871;28;45381;-66
2021/10/19 05:17:27;;;;;;;;;9.25;9.00;;;;;18.51;75.13;101722.91;4941580;28;45512;-66
2021/10/19 05:19:54;;;;;;;;;11.50;11.00;;;;;18.50;74.99;101729.22;4941986;28;45255;-66
2021/10/19 05:22:20;;;;;;;;;17.00;14.00;;;;;18.50;74.89;101732.75;4941636;28;45330;-67
2021/10/19 05:24:45;;;;;;;;;14.50;12.00;;;;;18.50;74.95;101724.75;4941362;28;45446;-66
2021/10/19 05:27:11;;;;;;;;;12.75;11.75;;;;;18.51;74.95;101726.44;4941330;28;45250;-66
2021/10/19 05:29:36;;;;;;;;;16.50;13.50;;;;;18.52;74.91;101728.13;4942999;28;45361;-66
2021/10/19 05:32:05;;;;;;;;;13.00;12.00;;;;;18.51;74.46;101730.94;4944676;28;45914;-66
2021/10/19 05:34:30;;;;;;;;;15.00;12.25;;;;;18.50;74.88;101726.56;4944810;28;45321;-66
2021/10/19 05:36:56;;;;;;;;;18.25;11.25;;;;;18.49;74.66;101730.19;4959802;28;45381;-66
2021/10/19 05:39:21;;;;;;;;;11.00;10.50;;;;;18.47;74.60;101730.28;4944571;28;45492;-66
2021/10/19 05:41:47;;;;;;;;;15.50;13.00;;;;;18.45;74.14;101726.91;4944095;28;46096;-71
2021/10/19 05:44:12;;;;;;;;;12.25;11.50;;;;;18.45;74.37;101726.06;4953359;28;45278;-60
2021/10/19 05:46:38;;;;;;;;;17.25;13.25;;;;;18.43;74.20;101728.84;4951836;28;45433;-60
2021/10/19 05:49:03;;;;;;;;;15.25;14.00;;;;;18.42;74.01;101725.34;4952756;28;45310;-60
2021/10/19 05:51:29;;;;;;;;;12.25;12.00;;;;;18.41;74.54;101722.78;4955396;28;45980;-60
2021/10/19 05:53:54;;;;;;;;;15.50;14.00;;;;;18.40;74.28;101721.06;4953305;28;45395;-60
2021/10/19 05:56:20;;;;;;;;;11.50;10.25;;;;;18.35;74.50;101721.44;4953309;28;45308;-60
2021/10/19 05:58:45;;;;;;;;;17.00;13.00;;;;;18.32;74.34;101724.31;4953235;28;45404;-59
2021/10/19 06:01:11;;;;;;;;;17.25;15.25;;;;;18.30;74.37;101720.91;4951762;28;45959;-61
2021/10/19 06:03:36;;;;;;;;;15.50;15.25;;;;;18.27;74.87;101722.97;4952961;28;45254;-61
2021/10/19 06:06:07;;;;;;;;;14.75;12.25;;;;;18.25;74.39;101725.78;4953674;28;45287;-59
2021/10/19 06:08:33;;;;;;;;;13.50;13.00;;;;;18.22;74.44;101722.47;4951339;28;45376;-66
2021/10/19 06:10:59;;;;;;;;;15.75;14.00;;;;;18.21;74.55;101734.94;4951706;28;45928;-65
2021/10/19 06:13:25;;;;;;;;;12.75;12.25;;;;;18.18;74.85;101726.34;4952222;28;45372;-64
2021/10/19 06:15:50;;;;;;;;;16.00;14.50;;;;;18.18;75.09;101731.69;4953904;28;45376;-65
2021/10/19 06:18:16;;;;;;;;;12.25;11.25;;;;;18.15;75.20;101730.06;4950971;28;45409;-64
2021/10/19 06:20:43;;;;;;;;;17.00;14.75;;;;;18.17;75.06;101732.63;4949014;28;45518;-64
2021/10/19 06:23:09;;;;;;;;;19.75;15.75;;;;;18.14;74.97;101736.38;4953654;28;45436;-60
2021/10/19 06:25:34;;;;;;;;;14.75;14.25;;;;;18.13;75.16;101740.03;4953377;28;45486;-62
2021/10/19 06:27:59;;;;;;;;;15.50;14.25;;;;;18.12;75.24;101735.66;4951155;28;45485;-63
2021/10/19 06:30:25;;;;;;;;;17.00;15.00;;;;;18.11;74.77;101741.97;4950895;28;45532;-63
2021/10/19 06:32:50;;;;;;;;;14.50;14.00;;;;;18.10;74.71;101746.44;4952015;28;45421;-58
2021/10/19 06:35:16;;;;;;;;;18.25;14.00;;;;;18.08;74.97;101743.00;4954006;28;45472;-58
2021/10/19 06:37:42;;;;;;;;;14.00;13.25;;;;;18.10;75.13;101740.25;4945165;28;45536;-61
2021/10/19 06:40:08;;;;;;;;;17.75;15.25;;;;;18.09;75.22;101736.75;4951554;28;45440;-65
2021/10/19 06:42:34;;;;;;;;;46.25;36.50;;;;;18.10;74.95;101735.78;4949196;28;45729;-63
2021/10/19 06:45:00;;;;;;;;;13.50;12.50;;;;;18.12;75.01;101736.50;4951392;28;45345;-63
2021/10/19 06:47:30;;;;;;;;;10.75;10.50;;;;;18.12;75.17;101739.16;4950534;28;45547;-63
2021/10/19 06:49:57;;;;;;;;;14.00;12.00;;;;;18.14;74.77;101739.03;4951695;28;45579;-64
2021/10/19 06:52:22;;;;;;;;;15.50;12.75;;;;;18.14;75.25;101741.72;4948538;28;45283;-64
2021/10/19 06:54:48;;;;;;;;;12.75;11.00;;;;;18.15;74.77;101740.75;4950817;28;45439;-65
2021/10/19 06:57:13;;;;;;;;;15.50;11.00;;;;;18.18;75.05;101742.34;4953134;28;45564;-64
2021/10/19 06:59:39;;;;;;;;;15.25;14.00;;;;;18.19;74.79;101736.91;4952374;28;46117;-65
2021/10/19 07:02:05;;;;;;;;;13.00;10.75;;;;;18.20;74.74;101743.94;4952719;28;45320;-67
2021/10/19 07:04:30;;;;;;;;;12.25;12.00;;;;;18.23;74.61;101748.16;4951365;28;45385;-67
2021/10/19 07:06:56;;;;;;;;;19.50;15.50;;;;;18.26;74.93;101747.97;4951099;28;45429;-66
2021/10/19 07:09:21;;;;;;;;;14.75;12.25;;;;;18.28;75.04;101749.53;4950755;28;46251;-66
2021/10/19 07:11:47;;;;;;;;;11.75;10.75;;;;;18.30;74.34;101754.75;4953244;28;45325;-68
2021/10/19 07:14:12;;;;;;;;;16.75;13.50;;;;;18.32;74.56;101758.13;4952285;28;45664;-63
2021/10/19 07:16:38;;;;;;;;;15.00;12.00;;;;;18.33;73.92;101755.38;4951127;28;45421;-67
2021/10/19 07:19:08;;;;;;;;;10.50;10.50;;;;;18.34;73.88;101749.06;4950440;28;46308;-66
2021/10/19 07:21:34;;;;;;;;;13.50;12.75;;;;;18.38;74.16;101755.88;4952546;28;45405;-64
2021/10/19 07:23:59;;;;;;;;;13.25;11.50;;;;;18.41;73.77;101760.97;4951915;28;45293;-66
2021/10/19 07:26:25;;;;;;;;;11.25;11.00;;;;;18.42;73.79;101757.34;4952055;28;45253;-66
2021/10/19 07:28:50;;;;;;;;;10.75;10.75;;;;;18.42;73.50;101760.00;4950296;28;46266;-65
2021/10/19 07:31:17;;;;;;;;;19.50;17.50;;;;;18.44;73.47;101759.03;4952538;28;45349;-65
2021/10/19 07:33:42;;;;;;;;;16.00;15.00;;;;;18.45;73.20;101756.25;4952217;28;45263;-67
2021/10/19 07:36:08;;;;;;;;;12.50;11.00;;;;;18.47;73.26;101762.31;4952593;28;45512;-65
2021/10/19 07:38:33;;;;;;;;;16.00;14.00;;;;;18.49;72.94;101762.22;4950785;28;45232;-65
2021/10/19 07:40:59;;;;;;;;;14.00;14.00;;;;;18.49;73.02;101763.06;4950404;28;45211;-66
2021/10/19 07:43:24;;;;;;;;;13.00;12.50;;;;;18.50;72.71;101777.25;4951411;28;45522;-66
2021/10/19 07:45:50;;;;;;;;;12.25;11.75;;;;;18.51;72.87;101769.13;4952628;28;45249;-66
2021/10/19 07:48:16;;;;;;;;;15.00;13.75;;;;;18.54;72.52;101773.38;4950392;28;45717;-64
2021/10/19 07:50:46;;;;;;;;;19.00;14.25;;;;;18.55;72.65;101770.59;4950750;28;45343;-66
2021/10/19 07:53:12;;;;;;;;;13.75;12.50;;;;;18.57;72.14;101768.66;4951103;28;45327;-63
2021/10/19 07:55:38;;;;;;;;;28.25;25.50;;;;;18.59;72.01;101769.41;4951996;28;45175;-66
2021/10/19 07:58:03;;;;;;;;;14.00;12.25;;;;;18.59;71.52;101765.88;4950156;28;45686;-68
2021/10/19 08:00:29;;;;;;;;;16.00;14.00;;;;;18.60;72.15;101770.25;4950443;28;45440;-65
2021/10/19 08:02:57;;;;;;;;;14.25;14.00;;;;;18.60;71.91;101768.41;4950043;28;45489;-64
2021/10/19 08:05:22;;;;;;;;;18.25;14.25;;;;;18.61;71.41;101774.59;4957128;28;45552;-64
2021/10/19 08:07:51;;;;;;;;;24.50;16.75;;;;;18.61;71.57;101766.59;4957170;28;46721;-65
2021/10/19 08:10:20;;;;;;;;;17.00;14.00;;;;;18.62;71.44;101773.63;4950323;28;45605;-67
2021/10/19 08:12:46;;;;;;;;;16.50;14.00;;;;;18.63;71.20;101773.50;4948512;28;45294;-65
2021/10/19 08:15:12;;;;;;;;;13.75;13.25;;;;;18.66;71.41;101780.47;4948858;28;45585;-64
2021/10/19 08:17:39;;;;;;;;;17.25;15.50;;;;;18.67;71.36;101784.84;4952173;28;45289;-66
2021/10/19 08:20:06;;;;;;;;;15.25;13.50;;;;;18.69;71.29;101785.56;4948665;28;45302;-64
2021/10/19 08:22:33;;;;;;;;;14.75;13.25;;;;;18.75;71.26;101797.63;4951132;28;45281;-65
2021/10/19 08:25:02;;;;;;;;;15.00;11.25;;;;;18.77;70.56;101795.66;4948486;28;46389;-64
2021/10/19 08:27:28;;;;;;;;;18.75;12.75;;;;;18.78;70.57;101803.56;4949730;28;45484;-64
2021/10/19 08:29:53;;;;;;;;;15.75;14.75;;;;;18.83;70.88;101801.38;4952631;28;45455;-64
2021/10/19 08:32:19;;;;;;;;;13.00;12.00;;;;;18.90;70.66;101807.09;4951332;28;45394;-65
2021/10/19 08:34:45;;;;;;;;;13.00;13.00;;;;;18.94;70.74;101808.56;4949187;28;45327;-65
2021/10/19 08:37:11;;;;;;;;;15.00;14.25;;;;;19.00;70.60;101805.41;4950480;28;45265;-64
2021/10/19 08:39:37;;;;;;;;;18.00;14.75;;;;;19.08;70.66;101812.84;4952060;28;45250;-66
2021/10/19 08:42:02;;;;;;;;;12.25;12.25;;;;;19.15;70.37;101811.38;4949611;28;45325;-63
2021/10/19 08:44:28;;;;;;;;;16.75;14.00;;;;;19.18;69.84;101814.66;4951754;28;45206;-65
2021/10/19 08:46:55;;;;;;;;;19.75;16.00;;;;;19.21;70.25;101817.09;4948963;28;45482;-62
2021/10/19 08:49:20;;;;;;;;;17.50;15.50;;;;;19.26;70.17;101819.41;4950106;28;45319;-60
2021/10/19 08:51:46;;;;;;;;;16.25;14.00;;;;;19.31;69.67;101808.34;4947476;28;45322;-60
2021/10/19 08:54:12;;;;;;;;;17.75;14.25;;;;;19.34;69.98;101808.94;4951165;28;45413;-62
2021/10/19 08:56:41;;;;;;;;;17.25;14.00;;;;;19.41;69.70;101814.66;4951829;28;46107;-61
2021/10/19 08:59:07;;;;;;;;;19.00;14.25;;;;;19.43;69.67;101802.03;4948409;28;45252;-64
2021/10/19 09:01:33;;;;;;;;;14.50;12.25;;;;;19.44;69.45;101801.94;4950534;28;45176;-62
2021/10/19 09:03:59;;;;;;;;;16.50;11.25;;;;;19.42;69.31;101795.81;4948105;28;45233;-63
2021/10/19 09:06:33;;;;;;;;;13.75;13.00;;;;;19.43;69.14;101791.34;4955017;28;45253;-61
2021/10/19 09:09:07;;;;;;;;;16.75;15.00;;;;;19.43;69.45;101794.00;4956060;28;45258;-61
2021/10/19 09:11:42;;;;;;;;;14.50;11.00;;;;;19.43;68.79;101797.56;4952193;28;45259;-63
2021/10/19 09:14:08;;;;;;;;;13.75;13.75;;;;;19.42;69.09;101792.31;4952810;28;45247;-60
2021/10/19 09:16:44;;;;;;;;;13.50;13.00;;;;;19.41;69.01;101783.44;4952270;28;45228;-61
2021/10/19 09:19:12;;;;;;;;;14.25;11.25;;;;;19.42;69.28;101795.81;4953984;28;45504;-61
2021/10/19 09:21:43;;;;;;;;;16.25;15.00;;;;;19.40;69.11;101787.09;4954837;28;45640;-60
2021/10/19 09:24:15;;;;;;;;;14.50;14.00;;;;;19.40;69.05;101796.94;4951480;28;45387;-60
2021/10/19 09:26:56;;;;;;;;;14.00;11.25;;;;;19.36;68.82;101809.69;4952701;28;46059;-62
2021/10/19 09:29:23;;;;;;;;;13.75;13.00;;;;;19.33;69.10;101799.25;4954259;28;45353;-61
2021/10/19 09:31:54;;;;;;;;;0.25;0.25;;;;;19.33;69.04;101801.06;4954511;28;45323;-61
2021/10/19 09:34:20;;;;;;;;;14.50;13.00;;;;;19.35;68.93;101799.97;4953366;28;45480;-60
2021/10/19 09:36:48;;;;;;;;;11.50;11.50;;;;;19.37;69.34;101789.19;4951563;28;45493;-60
2021/10/19 09:39:13;;;;;;;;;18.75;14.50;;;;;19.43;69.14;101802.03;4952150;28;45539;-61
2021/10/19 09:41:46;;;;;;;;;16.00;14.75;;;;;19.48;68.95;101790.00;4954223;28;45470;-59
2021/10/19 09:44:13;;;;;;;;;18.50;14.50;;;;;19.50;68.74;101792.53;4951552;28;45270;-62
2021/10/19 09:46:41;;;;;;;;;14.75;14.75;;;;;19.49;68.65;101799.72;4952228;28;45436;-64
2021/10/19 09:49:12;;;;;;;;;17.50;13.25;;;;;19.52;69.04;101796.81;4949601;28;45209;-64
2021/10/19 09:51:39;;;;;;;;;16.25;16.25;;;;;19.57;68.79;101792.94;4954528;28;45468;-62
2021/10/19 09:54:11;;;;;;;;;13.25;13.25;;;;;19.64;68.60;101796.81;4952420;28;45519;-61
2021/10/19 09:56:38;;;;;;;;;12.00;12.00;;;;;19.68;68.73;101796.47;4953462;28;45380;-64
2021/10/19 09:59:05;;;;;;;;;15.50;14.00;;;;;19.74;68.22;101800.44;4950475;28;45325;-62
2021/10/19 10:01:34;;;;;;;;;20.25;15.50;;;;;19.78;68.58;101802.75;4953737;28;45326;-62
2021/10/19 10:04:01;;;;;;;;;16.00;12.50;;;;;19.81;68.05;101798.97;4955359;28;45576;-64
2021/10/19 10:06:32;;;;;;;;;15.75;14.25;;;;;19.82;68.59;101795.31;4950363;28;45487;-61
2021/10/19 10:08:58;;;;;;;;;12.75;12.00;;;;;19.89;68.27;101791.16;4953084;28;45442;-61
2021/10/19 10:11:24;;;;;;;;;16.00;14.50;;;;;19.94;68.26;101794.34;4952523;28;45301;-62
2021/10/19 10:14:03;;;;;;;;;13.25;12.50;;;;;20.04;68.31;101789.06;4952087;28;45409;-63
2021/10/19 10:16:40;;;;;;;;;14.00;10.25;;;;;20.09;67.90;101786.88;4949714;28;45467;-62
2021/10/19 10:19:19;;;;;;;;;12.50;11.00;;;;;20.11;67.76;101789.41;4953532;28;45369;-61
2021/10/19 10:21:52;;;;;;;;;15.50;12.25;;;;;20.16;67.92;101782.72;4950991;28;45373;-64
2021/10/19 10:24:29;;;;;;;;;12.00;12.00;;;;;20.23;67.82;101783.91;4952053;28;45613;-64
2021/10/19 10:27:07;;;;;;;;;8.25;7.50;;;;;20.31;67.80;101784.13;4951822;28;46211;-63
2021/10/19 10:29:44;;;;;;;;;11.00;11.00;;;;;20.37;67.35;101780.06;4950856;28;45538;-63
2021/10/19 10:32:25;;;;;;;;;19.25;15.25;;;;;20.44;66.97;101775.06;4949821;28;45269;-62
2021/10/19 10:35:08;;;;;;;;;13.50;13.00;;;;;20.50;67.20;101771.88;4948651;28;45223;-62
2021/10/19 10:37:37;;;;;;;;;15.00;12.25;;;;;20.54;66.94;101767.97;4949459;28;45384;-63
2021/10/19 10:40:04;;;;;;;;;16.00;13.75;;;;;20.59;66.53;101766.59;4952672;28;45326;-63
2021/10/19 10:42:39;;;;;;;;;18.00;16.00;;;;;20.65;66.53;101761.69;4953172;28;45385;-64
2021/10/19 10:45:23;;;;;;;;;16.50;12.25;;;;;20.75;66.42;101759.91;4951865;28;45518;-64
2021/10/19 10:47:58;;;;;;;;;16.25;14.50;;;;;20.83;66.12;101765.47;4947096;28;45600;-64
2021/10/19 10:50:24;;;;;;;;;15.25;13.25;;;;;20.89;66.14;101763.09;4950933;28;45268;-62
2021/10/19 10:53:29;;;;;;;;;14.00;12.00;;;;;20.95;65.68;101753.69;4951686;28;45400;-62
2021/10/19 10:55:55;;;;;;;;;12.50;10.50;;;;;21.01;65.21;101746.94;4941596;28;45320;-62
2021/10/19 10:58:22;;;;;;;;;13.00;13.00;;;;;21.05;64.85;101743.03;4951704;28;45332;-64
2021/10/19 11:00:48;;;;;;;;;12.50;12.25;;;;;21.09;64.83;101737.28;4947038;28;45308;-61
2021/10/19 11:03:16;;;;;;;;;16.00;13.75;;;;;21.13;64.91;101741.38;4951079;28;45305;-63
2021/10/19 11:06:00;;;;;;;;;16.25;14.50;;;;;21.16;64.14;101730.38;4953497;28;46684;-62
2021/10/19 11:08:34;;;;;;;;;11.75;11.75;;;;;21.20;64.30;101722.91;4952378;28;45339;-64